createdAt,value
2023-05-12T00:00:49.806Z,0.60
2023-05-12T00:03:16.380Z,0.63
2023-05-12T00:05:42.869Z,0.50
2023-05-12T00:08:09.383Z,0.60
2023-05-12T00:10:35.822Z,0.68
2023-05-12T00:13:02.585Z,0.60
2023-05-12T00:15:29.105Z,0.63
2023-05-12T00:17:55.686Z,0.50
2023-05-12T00:20:22.563Z,0.70
2023-05-12T00:22:49.173Z,0.70
2023-05-12T00:25:15.758Z,1.10
2023-05-12T00:27:42.233Z,1.10
2023-05-12T00:30:09.363Z,1.30
2023-05-12T00:32:35.866Z,1.40
2023-05-12T00:35:02.631Z,1.40
2023-05-12T00:37:29.099Z,1.40
2023-05-12T00:39:55.572Z,1.42
2023-05-12T00:42:22.053Z,1.20
2023-05-12T00:44:48.539Z,1.15
2023-05-12T00:47:15.035Z,1.17
2023-05-12T00:49:42.745Z,1.10
2023-05-12T00:52:09.250Z,0.82
2023-05-12T00:54:36.186Z,1.30
2023-05-12T00:57:02.696Z,1.45
2023-05-12T00:59:29.679Z,1.27
2023-05-12T01:01:56.160Z,1.20
2023-05-12T01:04:23.163Z,1.40
2023-05-12T01:07:28.586Z,1.40
2023-05-12T01:09:56.422Z,1.40
2023-05-12T01:12:23.773Z,1.80
2023-05-12T01:14:50.838Z,1.48
2023-05-12T01:17:19.775Z,1.85
2023-05-12T01:19:52.163Z,1.40
2023-05-12T01:22:18.754Z,1.60
2023-05-12T01:24:50.686Z,1.48
2023-05-12T01:27:18.479Z,1.33
2023-05-12T01:29:45.788Z,1.10
2023-05-12T01:32:12.622Z,1.58
2023-05-12T01:34:39.151Z,1.23
2023-05-12T01:37:06.046Z,1.20
2023-05-12T01:39:32.494Z,1.05
2023-05-12T01:41:58.960Z,1.00
2023-05-12T01:44:25.431Z,1.15
2023-05-12T01:46:51.944Z,0.90
2023-05-12T01:49:18.511Z,1.00
2023-05-12T01:51:44.993Z,1.20
2023-05-12T01:54:11.440Z,1.00
2023-05-12T01:56:37.898Z,1.10
2023-05-12T01:59:04.395Z,1.10
2023-05-12T02:01:32.253Z,1.10
2023-05-12T02:03:59.344Z,1.10
2023-05-12T02:06:26.311Z,0.90
2023-05-12T02:08:52.797Z,0.90
2023-05-12T02:11:19.339Z,1.00
2023-05-12T02:13:45.857Z,0.90
2023-05-12T02:16:12.424Z,0.90
2023-05-12T02:18:38.996Z,0.80
2023-05-12T02:21:05.600Z,0.80
2023-05-12T02:23:32.063Z,0.88
2023-05-12T02:25:58.504Z,0.90
2023-05-12T02:28:25.040Z,1.05
2023-05-12T02:30:52.934Z,1.00
2023-05-12T02:33:20.150Z,1.00
2023-05-12T02:35:46.623Z,1.00
2023-05-12T02:38:13.299Z,0.85
2023-05-12T02:40:39.808Z,0.80
2023-05-12T02:43:07.084Z,0.95
2023-05-12T02:45:33.888Z,1.17
2023-05-12T02:48:00.428Z,1.10
2023-05-12T02:50:27.082Z,1.10
2023-05-12T02:52:53.539Z,1.05
2023-05-12T02:55:20.008Z,1.35
2023-05-12T02:57:46.480Z,0.90
2023-05-12T03:00:13.470Z,1.10
2023-05-12T03:02:40.037Z,1.20
2023-05-12T03:05:07.480Z,0.88
2023-05-12T03:07:34.021Z,1.20
2023-05-12T03:10:01.576Z,0.95
2023-05-12T03:12:30.970Z,1.33
2023-05-12T03:14:57.516Z,1.10
2023-05-12T03:17:23.988Z,0.85
2023-05-12T03:19:50.716Z,1.15
2023-05-12T03:22:17.264Z,1.00
2023-05-12T03:24:43.806Z,1.23
2023-05-12T03:27:10.284Z,1.20
2023-05-12T03:29:36.785Z,1.05
2023-05-12T03:32:03.276Z,1.30
2023-05-12T03:34:29.721Z,1.40
2023-05-12T03:36:56.209Z,1.33
2023-05-12T03:39:24.752Z,1.27
2023-05-12T03:41:51.247Z,1.30
2023-05-12T03:44:18.686Z,1.30
2023-05-12T03:46:45.506Z,1.67
2023-05-12T03:49:12.529Z,1.58
2023-05-12T03:51:39.046Z,1.27
2023-05-12T03:54:05.709Z,1.50
2023-05-12T03:56:32.372Z,1.30
2023-05-12T03:58:58.846Z,1.60
2023-05-12T04:01:25.499Z,1.38
2023-05-12T04:03:52.197Z,1.65
2023-05-12T04:06:18.753Z,1.73
2023-05-12T04:08:45.438Z,1.90
2023-05-12T04:11:12.016Z,1.63
2023-05-12T04:13:38.522Z,1.60
2023-05-12T04:16:05.314Z,1.30
2023-05-12T04:18:31.826Z,2.10
2023-05-12T04:20:58.303Z,1.60
2023-05-12T04:23:24.929Z,1.70
2023-05-12T04:25:51.390Z,1.70
2023-05-12T04:28:17.901Z,1.65
2023-05-12T04:30:44.428Z,1.42
2023-05-12T04:33:11.020Z,1.90
2023-05-12T04:35:37.533Z,2.00
2023-05-12T04:38:04.435Z,1.70
2023-05-12T04:40:33.384Z,1.80
2023-05-12T04:43:01.292Z,1.92
2023-05-12T04:45:27.796Z,1.80
2023-05-12T04:47:54.378Z,2.15
2023-05-12T04:50:21.202Z,2.00
2023-05-12T04:52:47.761Z,1.60
2023-05-12T04:55:14.300Z,1.60
2023-05-12T04:57:41.504Z,1.85
2023-05-12T05:00:09.067Z,1.70
2023-05-12T05:02:35.879Z,1.73
2023-05-12T05:05:02.847Z,2.08
2023-05-12T05:07:29.344Z,2.28
2023-05-12T05:09:55.904Z,1.95
2023-05-12T05:12:22.372Z,1.63
2023-05-12T05:14:48.896Z,2.08
2023-05-12T05:17:15.415Z,1.90
2023-05-12T05:19:54.877Z,1.70
2023-05-12T05:22:24.655Z,2.10
2023-05-12T05:24:51.717Z,1.90
2023-05-12T05:27:18.269Z,1.70
2023-05-12T05:29:44.812Z,2.10
2023-05-12T05:32:11.402Z,1.92
2023-05-12T05:34:38.208Z,1.75
2023-05-12T05:37:04.936Z,2.10
2023-05-12T05:39:31.500Z,2.60
2023-05-12T05:41:58.200Z,2.55
2023-05-12T05:46:45.797Z,2.25
2023-05-12T05:49:12.274Z,1.80
2023-05-12T05:51:38.721Z,2.60
2023-05-12T05:54:05.204Z,2.25
2023-05-12T05:56:33.209Z,2.30
2023-05-12T05:59:03.043Z,2.10
2023-05-12T06:01:29.564Z,2.10
2023-05-12T06:03:56.145Z,2.17
2023-05-12T06:06:22.637Z,2.55
2023-05-12T06:08:49.132Z,2.08
2023-05-12T06:11:17.746Z,2.58
2023-05-12T06:13:44.531Z,2.20
2023-05-12T06:16:11.021Z,1.90
2023-05-12T06:18:38.302Z,2.20
2023-05-12T06:21:05.393Z,2.28
2023-05-12T06:23:31.991Z,2.00
2023-05-12T06:25:58.441Z,2.30
2023-05-12T06:28:24.937Z,1.88
2023-05-12T06:30:51.451Z,2.20
2023-05-12T06:33:17.956Z,2.38
2023-05-12T06:35:44.522Z,2.38
2023-05-12T06:38:10.984Z,2.00
2023-05-12T06:40:37.433Z,2.45
2023-05-12T06:43:04.053Z,2.08
2023-05-12T06:45:30.705Z,1.85
2023-05-12T06:47:57.783Z,1.98
2023-05-12T06:50:24.362Z,1.90
2023-05-12T06:52:51.076Z,1.70
2023-05-12T06:55:20.498Z,1.67
2023-05-12T06:57:47.638Z,1.52
2023-05-12T07:00:14.617Z,1.88
2023-05-12T07:02:41.256Z,1.60
2023-05-12T07:05:08.571Z,1.70
2023-05-12T07:07:35.982Z,1.50
2023-05-12T07:10:02.490Z,1.67
2023-05-12T07:12:29.007Z,1.90
2023-05-12T07:14:56.044Z,2.00
2023-05-12T07:17:22.613Z,1.90
2023-05-12T07:19:49.195Z,1.98
2023-05-12T07:22:15.746Z,2.10
2023-05-12T07:24:42.217Z,2.35
2023-05-12T07:27:08.817Z,2.50
2023-05-12T07:29:35.292Z,2.60
2023-05-12T07:32:01.805Z,2.95
2023-05-12T07:34:28.266Z,2.92
2023-05-12T07:36:54.742Z,3.28
2023-05-12T07:39:23.668Z,3.35
2023-05-12T07:41:51.065Z,3.17
2023-05-12T07:44:17.663Z,3.53
2023-05-12T07:46:44.322Z,4.22
2023-05-12T07:49:10.814Z,3.92
2023-05-12T07:51:37.413Z,3.47
2023-05-12T07:54:04.838Z,5.70
2023-05-12T07:56:31.350Z,3.80
2023-05-12T07:58:57.813Z,3.88
2023-05-12T08:01:24.364Z,3.50
2023-05-12T08:03:51.402Z,3.88
2023-05-12T08:06:18.478Z,3.65
2023-05-12T08:08:44.991Z,3.65
2023-05-12T08:11:12.643Z,3.63
2023-05-12T08:13:39.245Z,3.53
2023-05-12T08:16:06.254Z,3.72
2023-05-12T08:18:32.916Z,4.00
2023-05-12T08:20:59.450Z,3.90
2023-05-12T08:23:25.953Z,4.30
2023-05-12T08:25:52.453Z,4.05
2023-05-12T08:28:18.951Z,4.40
2023-05-12T08:30:45.559Z,4.10
2023-05-12T08:33:12.598Z,4.50
2023-05-12T08:35:39.277Z,4.07
2023-05-12T08:38:06.147Z,4.13
2023-05-12T08:40:34.645Z,5.47
2023-05-12T08:43:13.710Z,4.68
2023-05-12T08:45:40.208Z,4.15
2023-05-12T08:48:09.286Z,4.15
2023-05-12T08:50:36.063Z,4.53
2023-05-12T08:53:04.168Z,4.05
2023-05-12T08:55:33.593Z,3.65
2023-05-12T08:58:00.932Z,4.05
2023-05-12T09:00:28.294Z,3.90
2023-05-12T09:02:55.092Z,3.72
2023-05-12T09:05:22.532Z,3.70
2023-05-12T09:07:49.380Z,3.63
2023-05-12T09:10:29.860Z,3.78
2023-05-12T09:15:35.232Z,2.95
2023-05-12T09:18:01.753Z,2.08
2023-05-12T09:20:31.948Z,2.10
2023-05-12T09:23:00.050Z,2.15
2023-05-12T09:25:26.552Z,2.53
2023-05-12T09:27:57.346Z,2.30
2023-05-12T09:30:31.636Z,2.25
2023-05-12T09:33:12.194Z,2.30
2023-05-12T09:35:40.087Z,2.28
2023-05-12T09:38:10.342Z,2.17
2023-05-12T09:40:36.944Z,1.90
2023-05-12T09:43:07.169Z,1.90
2023-05-12T09:45:37.301Z,1.58
2023-05-12T09:48:13.745Z,2.20
2023-05-12T09:50:48.411Z,1.83
2023-05-12T09:53:17.288Z,1.90
2023-05-12T09:55:44.587Z,1.65
2023-05-12T09:58:11.147Z,1.60
2023-05-12T10:00:55.064Z,1.23
2023-05-12T10:03:25.624Z,1.60
2023-05-12T10:05:58.101Z,1.30
2023-05-12T10:08:27.187Z,1.25
2023-05-12T10:10:53.899Z,1.60
2023-05-12T10:13:20.477Z,1.40
2023-05-12T10:15:47.264Z,1.60
2023-05-12T10:18:14.434Z,1.70
2023-05-12T10:20:41.430Z,1.52
2023-05-12T10:23:07.950Z,1.55
2023-05-12T10:25:34.601Z,1.70
2023-05-12T10:28:01.764Z,1.52
2023-05-12T10:30:28.249Z,1.80
2023-05-12T10:32:54.791Z,1.80
2023-05-12T10:35:21.528Z,1.60
2023-05-12T10:37:48.180Z,1.67
2023-05-12T10:40:23.947Z,1.90
2023-05-12T10:42:50.398Z,1.35
2023-05-12T10:45:18.222Z,1.55
2023-05-12T10:47:45.393Z,1.40
2023-05-12T10:50:14.830Z,1.60
2023-05-12T10:52:52.372Z,1.20
2023-05-12T10:55:19.232Z,1.02
2023-05-12T10:57:50.658Z,0.90
2023-05-12T11:00:23.039Z,1.00
2023-05-12T11:02:51.394Z,1.00
2023-05-12T11:05:19.228Z,1.02
2023-05-12T11:07:50.074Z,1.10
2023-05-12T11:10:17.969Z,1.10
2023-05-12T11:12:45.067Z,0.90
2023-05-12T11:15:12.113Z,1.00
2023-05-12T11:17:40.456Z,1.10
2023-05-12T11:20:09.648Z,1.30
2023-05-12T11:22:36.116Z,1.00
2023-05-12T11:25:12.049Z,0.90
2023-05-12T11:27:42.334Z,0.70
2023-05-12T11:30:10.962Z,0.75
2023-05-12T11:32:38.131Z,0.73
2023-05-12T11:35:23.072Z,0.60
2023-05-12T11:37:49.796Z,0.70
2023-05-12T11:40:21.650Z,0.52
2023-05-12T11:42:51.678Z,0.60
2023-05-12T11:45:26.109Z,0.57
2023-05-12T11:47:53.557Z,0.80
2023-05-12T11:50:21.935Z,0.55
2023-05-12T11:52:48.535Z,0.90
2023-05-12T11:55:20.248Z,0.70
2023-05-12T11:57:55.344Z,0.80
2023-05-12T12:00:30.203Z,0.50
2023-05-12T12:03:13.224Z,0.70
2023-05-12T12:05:40.878Z,0.50
2023-05-12T12:08:13.324Z,0.70
2023-05-12T12:10:43.879Z,1.02
2023-05-12T12:13:10.362Z,1.30
2023-05-12T12:15:36.964Z,1.40
2023-05-12T12:18:03.690Z,1.10
2023-05-12T12:20:30.215Z,1.30
2023-05-12T12:22:56.724Z,1.27
2023-05-12T12:25:23.502Z,0.98
2023-05-12T12:27:50.073Z,1.05
2023-05-12T12:30:17.016Z,1.10
2023-05-12T12:32:44.189Z,1.40
2023-05-12T12:35:11.521Z,1.30
2023-05-12T12:37:38.030Z,1.20
2023-05-12T12:40:08.204Z,1.40
2023-05-12T12:42:35.986Z,1.60
2023-05-12T12:45:05.974Z,1.60
2023-05-12T12:47:32.624Z,1.40
2023-05-12T12:49:59.748Z,1.42
2023-05-12T12:52:26.237Z,1.42
2023-05-12T12:54:52.716Z,1.33
2023-05-12T12:57:20.898Z,1.40
2023-05-12T12:59:47.536Z,1.60
2023-05-12T13:02:14.285Z,1.33
2023-05-12T13:04:40.822Z,1.50
2023-05-12T13:07:07.292Z,1.60
2023-05-12T13:09:33.795Z,1.60
2023-05-12T13:12:00.950Z,1.65
2023-05-12T13:14:27.497Z,1.40
2023-05-12T13:16:54.043Z,1.35
2023-05-12T13:19:21.627Z,1.30
2023-05-12T13:21:48.161Z,1.38
2023-05-12T13:24:14.692Z,1.35
2023-05-12T13:26:41.192Z,1.27
2023-05-12T13:29:07.677Z,1.40
2023-05-12T13:31:34.279Z,1.45
2023-05-12T13:34:00.892Z,1.58
2023-05-12T13:36:28.524Z,2.30
2023-05-12T13:38:55.036Z,1.83
2023-05-12T13:41:21.508Z,2.15
2023-05-12T13:43:48.199Z,1.65
2023-05-12T13:46:14.751Z,2.42
2023-05-12T13:48:41.833Z,2.63
2023-05-12T13:51:08.372Z,2.70
2023-05-12T13:53:37.172Z,2.58
2023-05-12T13:56:03.723Z,2.40
2023-05-12T13:58:30.174Z,2.85
2023-05-12T14:00:56.652Z,2.80
2023-05-12T14:03:23.126Z,2.63
2023-05-12T14:05:49.588Z,2.10
2023-05-12T14:08:16.600Z,2.22
2023-05-12T14:10:43.087Z,2.22
2023-05-12T14:13:09.543Z,2.20
2023-05-12T14:15:47.785Z,2.38
2023-05-12T14:18:15.561Z,2.63
2023-05-12T14:20:42.035Z,2.58
2023-05-12T14:23:08.558Z,2.50
2023-05-12T14:25:35.287Z,2.15
2023-05-12T14:28:01.961Z,1.63
2023-05-12T14:30:28.558Z,1.30
2023-05-12T14:32:55.203Z,1.58
2023-05-12T14:35:22.411Z,1.33
2023-05-12T14:37:49.158Z,1.20
2023-05-12T14:40:15.677Z,1.10
2023-05-12T14:42:42.336Z,1.40
2023-05-12T14:45:09.293Z,1.10
2023-05-12T14:47:36.512Z,1.15
2023-05-12T14:50:03.127Z,1.10
2023-05-12T14:52:29.733Z,1.00
2023-05-12T14:54:56.315Z,1.00
2023-05-12T14:57:22.827Z,1.30
2023-05-12T14:59:52.267Z,1.27
2023-05-12T15:02:18.756Z,1.20
2023-05-12T15:04:45.275Z,1.25
2023-05-12T15:07:11.804Z,1.60
2023-05-12T15:09:38.263Z,1.30
2023-05-12T15:12:05.047Z,1.30
2023-05-12T15:14:31.851Z,1.35
2023-05-12T15:16:58.414Z,1.35
2023-05-12T15:19:25.119Z,1.35
2023-05-12T15:21:51.575Z,1.60
2023-05-12T15:24:18.411Z,1.55
2023-05-12T15:26:44.874Z,1.60
2023-05-12T15:29:11.327Z,1.25
2023-05-12T15:31:37.857Z,0.90
2023-05-12T15:34:04.421Z,1.20
2023-05-12T15:36:32.185Z,0.85
2023-05-12T15:38:58.813Z,0.80
2023-05-12T15:41:25.594Z,0.95
2023-05-12T15:43:52.067Z,0.80
2023-05-12T15:46:18.555Z,0.82
2023-05-12T15:48:45.068Z,0.75
2023-05-12T15:51:11.776Z,0.90
2023-05-12T15:53:38.242Z,0.80
2023-05-12T15:56:05.125Z,0.88
2023-05-12T15:58:31.812Z,0.77
2023-05-12T16:00:58.462Z,0.70
2023-05-12T16:03:25.109Z,0.75
2023-05-12T16:05:51.754Z,0.77
2023-05-12T16:08:18.343Z,0.95
2023-05-12T16:10:44.875Z,1.00
2023-05-12T16:13:11.364Z,1.00
2023-05-12T16:15:37.843Z,0.90
2023-05-12T16:18:05.858Z,1.17
2023-05-12T16:20:33.686Z,1.15
2023-05-12T16:23:00.242Z,1.20
2023-05-12T16:25:26.771Z,1.10
2023-05-12T16:27:53.506Z,1.30
2023-05-12T16:30:20.442Z,1.38
2023-05-12T16:32:47.461Z,1.40
2023-05-12T16:35:14.172Z,1.50
2023-05-12T16:37:41.173Z,1.73
2023-05-12T16:40:08.245Z,1.70
2023-05-12T16:42:34.740Z,1.83
2023-05-12T16:45:01.485Z,1.80
2023-05-12T16:47:29.459Z,1.70
2023-05-12T16:49:57.977Z,1.70
2023-05-12T16:52:25.231Z,2.13
2023-05-12T16:54:51.829Z,2.13
2023-05-12T16:57:18.657Z,1.90
2023-05-12T16:59:45.382Z,1.95
2023-05-12T17:02:11.946Z,2.20
2023-05-12T17:04:38.530Z,2.55
2023-05-12T17:07:05.253Z,2.20
2023-05-12T17:09:31.771Z,2.15
2023-05-12T17:11:58.230Z,2.15
2023-05-12T17:14:24.715Z,2.65
2023-05-12T17:16:51.591Z,2.40
2023-05-12T17:19:18.224Z,2.25
2023-05-12T17:21:44.767Z,1.90
2023-05-12T17:24:11.231Z,2.40
2023-05-12T17:26:37.808Z,2.55
2023-05-12T17:29:04.362Z,2.33
2023-05-12T17:31:30.914Z,2.40
2023-05-12T17:33:57.465Z,2.25
2023-05-12T17:36:24.015Z,2.40
2023-05-12T17:38:51.521Z,2.00
2023-05-12T17:41:18.579Z,2.00
2023-05-12T17:43:45.271Z,1.90
2023-05-12T17:46:11.758Z,2.33
2023-05-12T17:48:38.846Z,1.77
2023-05-12T17:51:05.500Z,2.10
2023-05-12T17:53:32.295Z,2.30
2023-05-12T17:55:59.069Z,2.15
2023-05-12T17:58:25.586Z,2.38
2023-05-12T18:00:52.205Z,1.90
2023-05-12T18:03:23.210Z,2.15
2023-05-12T18:05:50.651Z,1.90
2023-05-12T18:08:17.312Z,2.25
2023-05-12T18:10:43.854Z,2.00
2023-05-12T18:13:10.601Z,2.13
2023-05-12T18:15:37.106Z,1.95
2023-05-12T18:18:03.667Z,2.20
2023-05-12T18:20:30.164Z,1.90
2023-05-12T18:22:56.700Z,2.38
2023-05-12T18:25:23.330Z,2.00
2023-05-12T18:27:49.961Z,2.03
2023-05-12T18:30:16.445Z,2.22
2023-05-12T18:32:43.265Z,1.77
2023-05-12T18:35:09.873Z,1.63
2023-05-12T18:37:36.352Z,1.80
2023-05-12T18:40:02.832Z,1.75
2023-05-12T18:42:29.302Z,1.70
2023-05-12T18:44:55.844Z,2.05
2023-05-12T18:47:22.336Z,1.80
2023-05-12T18:49:49.276Z,1.65
2023-05-12T18:52:15.835Z,1.60
2023-05-12T18:54:42.322Z,1.80
2023-05-12T18:57:08.782Z,1.70
2023-05-12T18:59:35.228Z,1.60
2023-05-12T19:02:01.881Z,1.65
2023-05-12T19:04:28.425Z,1.58
2023-05-12T19:06:54.959Z,1.50
2023-05-12T19:09:21.694Z,1.70
2023-05-12T19:11:48.165Z,1.75
2023-05-12T19:14:16.660Z,1.60
2023-05-12T19:16:43.344Z,1.70
2023-05-12T19:19:10.095Z,1.50
2023-05-12T19:21:36.784Z,1.98
2023-05-12T19:24:03.370Z,1.60
2023-05-12T19:26:29.870Z,1.60
2023-05-12T19:28:56.326Z,1.83
2023-05-12T19:31:22.968Z,1.73
2023-05-12T19:33:49.486Z,2.08
2023-05-12T19:36:15.960Z,2.40
2023-05-12T19:38:44.117Z,2.47
2023-05-12T19:41:10.815Z,2.00
2023-05-12T19:43:37.425Z,1.90
2023-05-12T19:46:03.935Z,1.65
2023-05-12T19:48:30.639Z,1.80
2023-05-12T19:50:57.182Z,1.95
2023-05-12T19:53:23.653Z,1.77
2023-05-12T19:55:50.123Z,1.90
2023-05-12T19:58:16.581Z,1.80
2023-05-12T20:00:43.075Z,2.00
2023-05-12T20:03:09.642Z,1.73
2023-05-12T20:05:39.069Z,1.73
2023-05-12T20:08:05.898Z,2.10
2023-05-12T20:10:32.495Z,2.00
2023-05-12T20:12:59.032Z,1.95
2023-05-12T20:15:25.559Z,1.98
2023-05-12T20:17:52.064Z,1.83
2023-05-12T20:20:18.615Z,1.95
2023-05-12T20:22:45.114Z,1.77
2023-05-12T20:25:15.900Z,2.08
2023-05-12T20:27:42.754Z,1.80
2023-05-12T20:30:09.955Z,1.67
2023-05-12T20:32:36.540Z,1.90
2023-05-12T20:35:03.393Z,2.00
2023-05-12T20:37:29.860Z,2.15
2023-05-12T20:39:56.475Z,1.92
2023-05-12T20:42:22.959Z,2.35
2023-05-12T20:44:50.119Z,2.50
2023-05-12T20:47:16.631Z,1.92
2023-05-12T20:49:45.008Z,2.20
2023-05-12T20:52:11.547Z,1.90
2023-05-12T20:54:38.530Z,2.00
2023-05-12T20:57:05.227Z,1.60
2023-05-12T20:59:32.032Z,1.63
2023-05-12T21:01:58.731Z,1.70
2023-05-12T21:04:25.442Z,2.03
2023-05-12T21:06:53.506Z,1.65
2023-05-12T21:09:20.392Z,1.80
2023-05-12T21:11:47.211Z,2.00
2023-05-12T21:14:13.757Z,2.17
2023-05-12T21:16:40.393Z,2.13
2023-05-12T21:19:07.137Z,2.05
2023-05-12T21:21:33.769Z,1.80
2023-05-12T21:24:00.287Z,2.13
2023-05-12T21:26:27.303Z,2.30
2023-05-12T21:28:53.774Z,2.42
2023-05-12T21:31:20.261Z,2.10
2023-05-12T21:33:47.638Z,2.00
2023-05-12T21:36:14.116Z,2.10
2023-05-12T21:38:40.556Z,2.20
2023-05-12T21:41:07.022Z,2.25
2023-05-12T21:43:33.568Z,2.15
2023-05-12T21:46:03.881Z,2.35
2023-05-12T21:48:31.966Z,2.08
2023-05-12T21:51:02.419Z,1.90
2023-05-12T21:53:28.981Z,2.03
2023-05-12T21:55:55.516Z,2.25
2023-05-12T21:58:23.555Z,2.00
2023-05-12T22:00:51.209Z,2.15
2023-05-12T22:03:20.202Z,1.70
2023-05-12T22:05:47.005Z,1.70
2023-05-12T22:08:13.873Z,1.80
2023-05-12T22:10:40.406Z,2.03
2023-05-12T22:13:07.302Z,1.92
2023-05-12T22:15:33.942Z,1.95
2023-05-12T22:18:01.014Z,1.77
2023-05-12T22:20:27.895Z,1.98
2023-05-12T22:22:54.425Z,2.05
2023-05-12T22:25:20.982Z,2.22
2023-05-12T22:27:47.439Z,2.20
2023-05-12T22:30:14.181Z,2.47
2023-05-12T22:32:40.780Z,1.98
2023-05-12T22:35:07.792Z,2.00
2023-05-12T22:37:34.340Z,1.90
2023-05-12T22:40:00.826Z,2.05
2023-05-12T22:42:27.296Z,2.45
2023-05-12T22:44:53.769Z,2.00
2023-05-12T22:47:20.330Z,2.25
2023-05-12T22:49:46.876Z,1.88
2023-05-12T22:52:13.356Z,2.47
2023-05-12T22:54:39.805Z,2.22
2023-05-12T22:57:06.361Z,2.35
2023-05-12T22:59:32.848Z,2.20
2023-05-12T23:01:59.309Z,2.25
2023-05-12T23:04:26.001Z,2.30
2023-05-12T23:06:52.480Z,2.20
2023-05-12T23:09:18.933Z,2.35
2023-05-12T23:11:45.405Z,2.20
2023-05-12T23:14:12.039Z,2.20
2023-05-12T23:16:38.571Z,2.35
2023-05-12T23:19:05.326Z,2.35
2023-05-12T23:21:32.740Z,2.20
2023-05-12T23:23:59.216Z,2.55
2023-05-12T23:26:25.822Z,2.60
2023-05-12T23:28:52.310Z,2.47
2023-05-12T23:31:18.806Z,2.40
2023-05-12T23:33:45.382Z,2.47
2023-05-12T23:36:13.413Z,2.35
2023-05-12T23:38:40.091Z,2.20
2023-05-12T23:41:06.624Z,2.40
2023-05-12T23:43:33.140Z,2.95
2023-05-12T23:45:59.659Z,3.38
2023-05-12T23:48:26.156Z,2.88
2023-05-12T23:50:52.676Z,3.40
2023-05-12T23:53:19.158Z,3.38
2023-05-12T23:55:45.743Z,3.20
2023-05-12T23:58:12.265Z,3.08
